sensor_id;sensor_type;location;lat;lon;timestamp;pressure;altitude;pressure_sealevel;temperature;humidity
60371;BME280;48550;40.588;49.684;2023-04-20T00:01:45;101223.59;;;11.14;100.00
60371;BME280;48550;40.588;49.684;2023-04-20T00:04:13;101211.84;;;11.15;100.00
60371;BME280;48550;40.588;49.684;2023-04-20T00:06:40;101214.88;;;11.19;100.00
60371;BME280;48550;40.588;49.684;2023-04-20T00:09:06;101202.66;;;11.23;100.00
60371;BME280;48550;40.588;49.684;2023-04-20T00:11:32;101197.88;;;11.25;100.00
60371;BME280;48550;40.588;49.684;2023-04-20T00:13:58;101193.75;;;11.22;100.00
60371;BME280;48550;40.588;49.684;2023-04-20T00:16:24;101200.56;;;11.25;100.00
60371;BME280;48550;40.588;49.684;2023-04-20T00:18:50;101187.13;;;11.25;100.00
60371;BME280;48550;40.588;49.684;2023-04-20T00:21:16;101183.75;;;11.29;100.00
60371;BME280;48550;40.588;49.684;2023-04-20T00:23:42;101181.88;;;11.30;100.00
60371;BME280;48550;40.588;49.684;2023-04-20T00:26:07;101185.16;;;11.32;100.00
60371;BME280;48550;40.588;49.684;2023-04-20T00:28:33;101174.06;;;11.28;100.00
60371;BME280;48550;40.588;49.684;2023-04-20T00:30:59;101181.28;;;11.28;100.00
60371;BME280;48550;40.588;49.684;2023-04-20T00:33:24;101180.84;;;11.31;100.00
60371;BME280;48550;40.588;49.684;2023-04-20T00:35:50;101179.66;;;11.27;100.00
60371;BME280;48550;40.588;49.684;2023-04-20T00:38:16;101171.22;;;11.23;100.00
60371;BME280;48550;40.588;49.684;2023-04-20T00:40:42;101165.03;;;11.23;100.00
60371;BME280;48550;40.588;49.684;2023-04-20T00:43:12;101155.34;;;11.22;100.00
60371;BME280;48550;40.588;49.684;2023-04-20T00:45:38;101159.06;;;11.21;100.00
60371;BME280;48550;40.588;49.684;2023-04-20T00:48:05;101154.72;;;11.20;100.00
60371;BME280;48550;40.588;49.684;2023-04-20T00:50:31;101141.53;;;11.18;100.00
60371;BME280;48550;40.588;49.684;2023-04-20T00:52:57;101144.81;;;11.20;100.00
60371;BME280;48550;40.588;49.684;2023-04-20T00:55:23;101134.53;;;11.17;100.00
60371;BME280;48550;40.588;49.684;2023-04-20T00:57:49;101128.31;;;11.17;100.00
60371;BME280;48550;40.588;49.684;2023-04-20T01:00:15;101123.69;;;11.24;100.00
60371;BME280;48550;40.588;49.684;2023-04-20T01:02:41;101121.59;;;11.26;100.00
60371;BME280;48550;40.588;49.684;2023-04-20T01:05:07;101117.84;;;11.27;100.00
60371;BME280;48550;40.588;49.684;2023-04-20T01:07:33;101119.34;;;11.23;100.00
60371;BME280;48550;40.588;49.684;2023-04-20T01:09:59;101129.50;;;11.21;100.00
60371;BME280;48550;40.588;49.684;2023-04-20T01:12:25;101131.81;;;11.17;100.00
60371;BME280;48550;40.588;49.684;2023-04-20T01:14:50;101125.41;;;11.18;100.00
60371;BME280;48550;40.588;49.684;2023-04-20T01:17:16;101119.63;;;11.14;100.00
60371;BME280;48550;40.588;49.684;2023-04-20T01:19:42;101114.88;;;11.17;100.00
60371;BME280;48550;40.588;49.684;2023-04-20T01:22:19;101124.38;;;11.19;100.00
60371;BME280;48550;40.588;49.684;2023-04-20T01:24:46;101120.84;;;11.19;100.00
60371;BME280;48550;40.588;49.684;2023-04-20T01:27:12;101122.94;;;11.17;100.00
60371;BME280;48550;40.588;49.684;2023-04-20T01:29:39;101124.59;;;11.18;100.00
60371;BME280;48550;40.588;49.684;2023-04-20T01:32:04;101128.56;;;11.15;100.00
60371;BME280;48550;40.588;49.684;2023-04-20T01:34:30;101129.56;;;11.14;100.00
60371;BME280;48550;40.588;49.684;2023-04-20T01:36:56;101114.72;;;11.11;100.00
60371;BME280;48550;40.588;49.684;2023-04-20T01:39:22;101118.44;;;11.10;100.00
60371;BME280;48550;40.588;49.684;2023-04-20T01:41:48;101117.84;;;11.08;100.00
60371;BME280;48550;40.588;49.684;2023-04-20T01:44:13;101123.81;;;11.10;100.00
60371;BME280;48550;40.588;49.684;2023-04-20T01:46:39;101125.09;;;11.08;100.00
60371;BME280;48550;40.588;49.684;2023-04-20T01:49:05;101120.78;;;11.07;100.00
60371;BME280;48550;40.588;49.684;2023-04-20T01:51:36;101109.22;;;11.06;100.00
60371;BME280;48550;40.588;49.684;2023-04-20T01:54:02;101112.25;;;11.10;100.00
60371;BME280;48550;40.588;49.684;2023-04-20T01:56:28;101105.03;;;11.10;100.00
60371;BME280;48550;40.588;49.684;2023-04-20T01:58:54;101098.16;;;11.14;100.00
60371;BME280;48550;40.588;49.684;2023-04-20T02:01:20;101098.31;;;11.20;100.00
60371;BME280;48550;40.588;49.684;2023-04-20T02:03:46;101101.59;;;11.22;100.00
60371;BME280;48550;40.588;49.684;2023-04-20T02:06:13;101097.19;;;11.27;100.00
60371;BME280;48550;40.588;49.684;2023-04-20T02:08:39;101104.78;;;11.30;100.00
60371;BME280;48550;40.588;49.684;2023-04-20T02:11:04;101106.78;;;11.35;100.00
60371;BME280;48550;40.588;49.684;2023-04-20T02:13:30;101093.47;;;11.40;100.00
60371;BME280;48550;40.588;49.684;2023-04-20T02:15:56;101092.69;;;11.51;100.00
60371;BME280;48550;40.588;49.684;2023-04-20T02:18:22;101099.28;;;11.67;100.00
60371;BME280;48550;40.588;49.684;2023-04-20T02:20:48;101093.34;;;11.76;100.00
60371;BME280;48550;40.588;49.684;2023-04-20T02:23:14;101085.00;;;11.96;100.00
60371;BME280;48550;40.588;49.684;2023-04-20T02:25:40;101085.59;;;11.98;100.00
60371;BME280;48550;40.588;49.684;2023-04-20T02:28:06;101081.50;;;12.07;100.00
60371;BME280;48550;40.588;49.684;2023-04-20T02:30:32;101081.38;;;12.26;100.00
60371;BME280;48550;40.588;49.684;2023-04-20T02:32:58;101078.34;;;12.22;100.00
60371;BME280;48550;40.588;49.684;2023-04-20T02:35:23;101074.81;;;12.33;100.00
60371;BME280;48550;40.588;49.684;2023-04-20T02:37:50;101069.97;;;12.59;100.00
60371;BME280;48550;40.588;49.684;2023-04-20T02:40:16;101065.97;;;12.85;100.00
60371;BME280;48550;40.588;49.684;2023-04-20T02:42:41;101066.28;;;13.28;100.00
60371;BME280;48550;40.588;49.684;2023-04-20T02:45:08;101057.13;;;13.91;100.00
60371;BME280;48550;40.588;49.684;2023-04-20T02:47:34;101057.41;;;14.67;100.00
60371;BME280;48550;40.588;49.684;2023-04-20T02:50:00;101041.88;;;15.01;100.00
60371;BME280;48550;40.588;49.684;2023-04-20T02:52:25;101044.69;;;15.38;100.00
60371;BME280;48550;40.588;49.684;2023-04-20T02:54:51;101038.78;;;15.41;100.00
60371;BME280;48550;40.588;49.684;2023-04-20T02:57:17;101052.31;;;16.05;100.00
60371;BME280;48550;40.588;49.684;2023-04-20T02:59:42;101055.03;;;16.47;100.00
60371;BME280;48550;40.588;49.684;2023-04-20T03:02:08;101062.16;;;17.57;100.00
60371;BME280;48550;40.588;49.684;2023-04-20T03:04:34;101056.75;;;17.72;100.00
60371;BME280;48550;40.588;49.684;2023-04-20T03:06:59;101062.75;;;17.84;100.00
60371;BME280;48550;40.588;49.684;2023-04-20T03:09:26;101062.69;;;17.43;100.00
60371;BME280;48550;40.588;49.684;2023-04-20T03:11:52;101055.63;;;17.47;100.00
60371;BME280;48550;40.588;49.684;2023-04-20T03:14:18;101056.72;;;17.41;100.00
60371;BME280;48550;40.588;49.684;2023-04-20T03:16:44;101052.13;;;17.72;100.00
60371;BME280;48550;40.588;49.684;2023-04-20T03:19:10;101050.91;;;16.97;100.00
60371;BME280;48550;40.588;49.684;2023-04-20T03:21:36;101041.91;;;16.87;100.00
60371;BME280;48550;40.588;49.684;2023-04-20T03:24:02;101040.72;;;16.62;100.00
60371;BME280;48550;40.588;49.684;2023-04-20T03:26:27;101049.53;;;16.95;100.00
60371;BME280;48550;40.588;49.684;2023-04-20T03:28:53;101040.41;;;17.31;100.00
60371;BME280;48550;40.588;49.684;2023-04-20T03:31:19;101038.34;;;16.71;100.00
60371;BME280;48550;40.588;49.684;2023-04-20T03:33:44;101039.38;;;16.17;100.00
60371;BME280;48550;40.588;49.684;2023-04-20T03:36:10;101042.72;;;15.29;100.00
60371;BME280;48550;40.588;49.684;2023-04-20T03:38:36;101033.38;;;14.87;100.00
60371;BME280;48550;40.588;49.684;2023-04-20T03:41:02;101013.38;;;14.67;100.00
60371;BME280;48550;40.588;49.684;2023-04-20T03:43:27;101016.44;;;14.75;100.00
60371;BME280;48550;40.588;49.684;2023-04-20T03:45:54;101004.88;;;14.80;100.00
60371;BME280;48550;40.588;49.684;2023-04-20T03:48:20;101004.31;;;14.78;100.00
60371;BME280;48550;40.588;49.684;2023-04-20T03:50:45;101005.63;;;14.97;100.00
60371;BME280;48550;40.588;49.684;2023-04-20T03:53:11;100988.91;;;15.00;100.00
60371;BME280;48550;40.588;49.684;2023-04-20T03:55:37;100998.34;;;14.98;100.00
60371;BME280;48550;40.588;49.684;2023-04-20T03:58:04;100984.09;;;15.07;100.00
60371;BME280;48550;40.588;49.684;2023-04-20T04:00:31;100981.00;;;14.93;100.00
60371;BME280;48550;40.588;49.684;2023-04-20T04:02:57;100975.28;;;15.17;100.00
60371;BME280;48550;40.588;49.684;2023-04-20T04:05:23;100976.34;;;15.48;100.00
60371;BME280;48550;40.588;49.684;2023-04-20T04:07:49;100983.13;;;15.50;100.00
60371;BME280;48550;40.588;49.684;2023-04-20T04:10:15;100967.94;;;15.44;100.00
60371;BME280;48550;40.588;49.684;2023-04-20T04:12:44;100958.88;;;15.29;100.00
60371;BME280;48550;40.588;49.684;2023-04-20T04:15:10;100958.91;;;15.61;100.00
60371;BME280;48550;40.588;49.684;2023-04-20T04:17:37;100959.47;;;15.63;100.00
60371;BME280;48550;40.588;49.684;2023-04-20T04:20:03;100965.22;;;15.44;100.00
60371;BME280;48550;40.588;49.684;2023-04-20T04:22:32;100967.25;;;15.59;100.00
60371;BME280;48550;40.588;49.684;2023-04-20T04:24:58;100971.22;;;15.51;100.00
60371;BME280;48550;40.588;49.684;2023-04-20T04:27:24;100978.69;;;15.66;100.00
60371;BME280;48550;40.588;49.684;2023-04-20T04:29:50;100965.78;;;15.78;100.00
60371;BME280;48550;40.588;49.684;2023-04-20T04:32:16;100956.00;;;15.72;100.00
60371;BME280;48550;40.588;49.684;2023-04-20T04:34:41;100960.72;;;15.92;100.00
60371;BME280;48550;40.588;49.684;2023-04-20T04:37:10;100958.16;;;16.23;100.00
60371;BME280;48550;40.588;49.684;2023-04-20T04:39:37;100956.31;;;16.28;100.00
60371;BME280;48550;40.588;49.684;2023-04-20T04:42:03;100946.09;;;16.40;100.00
60371;BME280;48550;40.588;49.684;2023-04-20T04:44:29;100937.72;;;16.57;100.00
60371;BME280;48550;40.588;49.684;2023-04-20T04:46:56;100936.13;;;16.61;100.00
60371;BME280;48550;40.588;49.684;2023-04-20T04:49:22;100928.38;;;17.21;100.00
60371;BME280;48550;40.588;49.684;2023-04-20T04:51:51;100944.38;;;17.27;100.00
60371;BME280;48550;40.588;49.684;2023-04-20T04:54:16;100937.50;;;18.06;100.00
60371;BME280;48550;40.588;49.684;2023-04-20T04:56:42;100938.91;;;19.07;94.51
60371;BME280;48550;40.588;49.684;2023-04-20T04:59:08;100963.13;;;20.00;80.37
60371;BME280;48550;40.588;49.684;2023-04-20T05:01:33;100953.44;;;20.99;72.85
60371;BME280;48550;40.588;49.684;2023-04-20T05:03:59;100969.34;;;20.73;72.51
60371;BME280;48550;40.588;49.684;2023-04-20T05:06:25;100960.38;;;20.91;71.83
60371;BME280;48550;40.588;49.684;2023-04-20T05:08:51;100957.22;;;20.84;72.28
60371;BME280;48550;40.588;49.684;2023-04-20T05:11:17;100956.25;;;21.45;67.05
60371;BME280;48550;40.588;49.684;2023-04-20T05:13:42;100961.00;;;21.72;66.55
60371;BME280;48550;40.588;49.684;2023-04-20T05:16:08;100958.94;;;22.51;58.81
60371;BME280;48550;40.588;49.684;2023-04-20T05:18:34;100945.16;;;22.42;60.46
60371;BME280;48550;40.588;49.684;2023-04-20T05:21:00;100940.38;;;21.79;61.50
60371;BME280;48550;40.588;49.684;2023-04-20T05:23:25;100922.09;;;22.35;59.00
60371;BME280;48550;40.588;49.684;2023-04-20T05:25:51;100923.28;;;22.15;59.36
60371;BME280;48550;40.588;49.684;2023-04-20T05:28:17;100922.47;;;22.14;59.86
60371;BME280;48550;40.588;49.684;2023-04-20T05:30:43;100914.09;;;22.11;59.04
60371;BME280;48550;40.588;49.684;2023-04-20T05:33:08;100916.31;;;22.36;57.81
60371;BME280;48550;40.588;49.684;2023-04-20T05:35:35;100919.47;;;22.30;58.33
60371;BME280;48550;40.588;49.684;2023-04-20T05:38:00;100922.88;;;22.35;57.12
60371;BME280;48550;40.588;49.684;2023-04-20T05:40:30;100924.59;;;22.45;56.59
60371;BME280;48550;40.588;49.684;2023-04-20T05:42:56;100924.50;;;21.95;59.10
60371;BME280;48550;40.588;49.684;2023-04-20T05:45:22;100921.56;;;22.19;58.25
60371;BME280;48550;40.588;49.684;2023-04-20T05:47:55;100919.63;;;23.19;53.82
60371;BME280;48550;40.588;49.684;2023-04-20T05:50:22;100922.50;;;23.45;52.92
60371;BME280;48550;40.588;49.684;2023-04-20T05:52:48;100928.63;;;23.73;52.12
60371;BME280;48550;40.588;49.684;2023-04-20T05:55:14;100927.09;;;23.05;54.92
60371;BME280;48550;40.588;49.684;2023-04-20T05:57:40;100917.78;;;22.92;55.18
60371;BME280;48550;40.588;49.684;2023-04-20T06:00:13;100916.06;;;23.72;51.69
60371;BME280;48550;40.588;49.684;2023-04-20T06:02:40;100918.81;;;23.50;52.13
60371;BME280;48550;40.588;49.684;2023-04-20T06:05:07;100920.69;;;23.09;53.01
60371;BME280;48550;40.588;49.684;2023-04-20T06:07:33;100927.56;;;23.83;50.59
60371;BME280;48550;40.588;49.684;2023-04-20T06:09:59;100920.38;;;23.64;51.20
60371;BME280;48550;40.588;49.684;2023-04-20T06:12:26;100911.34;;;23.64;51.52
60371;BME280;48550;40.588;49.684;2023-04-20T06:14:55;100902.22;;;23.77;51.26
60371;BME280;48550;40.588;49.684;2023-04-20T06:17:20;100898.56;;;23.82;50.75
60371;BME280;48550;40.588;49.684;2023-04-20T06:19:46;100896.66;;;23.60;51.67
60371;BME280;48550;40.588;49.684;2023-04-20T06:22:12;100890.28;;;23.73;51.51
60371;BME280;48550;40.588;49.684;2023-04-20T06:24:38;100892.59;;;23.88;50.74
60371;BME280;48550;40.588;49.684;2023-04-20T06:27:09;100884.06;;;23.90;51.06
60371;BME280;48550;40.588;49.684;2023-04-20T06:29:35;100885.44;;;24.18;50.53
60371;BME280;48550;40.588;49.684;2023-04-20T06:32:01;100883.50;;;24.19;50.77
60371;BME280;48550;40.588;49.684;2023-04-20T06:34:27;100878.25;;;25.73;46.32
60371;BME280;48550;40.588;49.684;2023-04-20T06:36:52;100873.00;;;25.42;45.15
60371;BME280;48550;40.588;49.684;2023-04-20T06:39:18;100868.69;;;25.32;46.42
60371;BME280;48550;40.588;49.684;2023-04-20T06:41:44;100867.72;;;24.93;46.92
60371;BME280;48550;40.588;49.684;2023-04-20T06:44:10;100863.53;;;24.87;46.20
60371;BME280;48550;40.588;49.684;2023-04-20T06:46:35;100860.25;;;25.37;45.10
60371;BME280;48550;40.588;49.684;2023-04-20T06:49:01;100851.72;;;25.13;46.82
60371;BME280;48550;40.588;49.684;2023-04-20T06:51:28;100847.69;;;25.10;46.38
60371;BME280;48550;40.588;49.684;2023-04-20T06:53:54;100844.78;;;25.15;45.63
60371;BME280;48550;40.588;49.684;2023-04-20T06:56:20;100865.31;;;25.64;44.49
60371;BME280;48550;40.588;49.684;2023-04-20T06:58:46;100854.00;;;24.93;46.82
60371;BME280;48550;40.588;49.684;2023-04-20T07:01:12;100846.75;;;24.80;48.02
60371;BME280;48550;40.588;49.684;2023-04-20T07:03:38;100843.53;;;24.78;48.27
60371;BME280;48550;40.588;49.684;2023-04-20T07:06:04;100843.22;;;24.62;48.52
60371;BME280;48550;40.588;49.684;2023-04-20T07:08:34;100839.34;;;24.72;48.41
60371;BME280;48550;40.588;49.684;2023-04-20T07:11:00;100836.09;;;24.44;48.21
60371;BME280;48550;40.588;49.684;2023-04-20T07:13:26;100833.03;;;24.46;47.97
60371;BME280;48550;40.588;49.684;2023-04-20T07:15:52;100840.13;;;24.81;48.00
60371;BME280;48550;40.588;49.684;2023-04-20T07:18:18;100814.31;;;24.74;49.01
60371;BME280;48550;40.588;49.684;2023-04-20T07:20:44;100826.09;;;24.74;48.84
60371;BME280;48550;40.588;49.684;2023-04-20T07:23:09;100838.00;;;24.26;50.22
60371;BME280;48550;40.588;49.684;2023-04-20T07:25:35;100835.94;;;24.84;49.04
60371;BME280;48550;40.588;49.684;2023-04-20T07:28:01;100839.66;;;24.36;50.12
60371;BME280;48550;40.588;49.684;2023-04-20T07:30:27;100829.47;;;24.80;48.97
60371;BME280;48550;40.588;49.684;2023-04-20T07:32:52;100813.25;;;25.21;47.73
60371;BME280;48550;40.588;49.684;2023-04-20T07:35:18;100800.28;;;24.40;49.60
60371;BME280;48550;40.588;49.684;2023-04-20T07:37:44;100787.66;;;23.48;52.10
60371;BME280;48550;40.588;49.684;2023-04-20T07:40:10;100794.97;;;22.77;55.16
60371;BME280;48550;40.588;49.684;2023-04-20T07:42:36;100783.00;;;22.87;56.28
60371;BME280;48550;40.588;49.684;2023-04-20T07:45:03;100780.19;;;22.78;56.94
60371;BME280;48550;40.588;49.684;2023-04-20T07:47:28;100776.59;;;22.46;59.92
60371;BME280;48550;40.588;49.684;2023-04-20T07:49:54;100774.16;;;22.45;60.26
60371;BME280;48550;40.588;49.684;2023-04-20T07:52:23;100779.56;;;22.36;61.16
60371;BME280;48550;40.588;49.684;2023-04-20T07:54:48;100769.97;;;22.25;61.17
60371;BME280;48550;40.588;49.684;2023-04-20T07:57:14;100774.81;;;22.28;60.04
60371;BME280;48550;40.588;49.684;2023-04-20T07:59:40;100770.88;;;22.34;59.28
60371;BME280;48550;40.588;49.684;2023-04-20T08:02:07;100770.00;;;22.70;58.27
60371;BME280;48550;40.588;49.684;2023-04-20T08:04:35;100775.09;;;22.40;60.33
60371;BME280;48550;40.588;49.684;2023-04-20T08:07:02;100777.84;;;22.40;60.49
60371;BME280;48550;40.588;49.684;2023-04-20T08:09:28;100771.59;;;22.26;61.96
60371;BME280;48550;40.588;49.684;2023-04-20T08:11:54;100770.91;;;22.20;62.39
60371;BME280;48550;40.588;49.684;2023-04-20T08:14:20;100765.78;;;22.41;61.83
60371;BME280;48550;40.588;49.684;2023-04-20T08:16:46;100757.00;;;22.53;61.34
60371;BME280;48550;40.588;49.684;2023-04-20T08:19:12;100753.84;;;22.82;61.92
60371;BME280;48550;40.588;49.684;2023-04-20T08:21:39;100738.91;;;22.88;59.74
60371;BME280;48550;40.588;49.684;2023-04-20T08:24:06;100727.28;;;23.13;60.43
60371;BME280;48550;40.588;49.684;2023-04-20T08:26:32;100721.06;;;23.39;57.09
60371;BME280;48550;40.588;49.684;2023-04-20T08:29:00;100722.63;;;23.23;58.10
60371;BME280;48550;40.588;49.684;2023-04-20T08:31:26;100697.16;;;23.13;57.49
60371;BME280;48550;40.588;49.684;2023-04-20T08:33:52;100708.56;;;23.55;55.03
60371;BME280;48550;40.588;49.684;2023-04-20T08:36:18;100704.13;;;23.94;53.62
60371;BME280;48550;40.588;49.684;2023-04-20T08:38:44;100702.28;;;23.55;54.36
60371;BME280;48550;40.588;49.684;2023-04-20T08:41:10;100692.78;;;23.69;54.00
60371;BME280;48550;40.588;49.684;2023-04-20T08:43:39;100671.56;;;23.84;53.36
60371;BME280;48550;40.588;49.684;2023-04-20T08:46:05;100671.38;;;23.89;52.55
60371;BME280;48550;40.588;49.684;2023-04-20T08:48:34;100670.94;;;23.30;54.30
60371;BME280;48550;40.588;49.684;2023-04-20T08:51:02;100672.72;;;23.26;55.09
60371;BME280;48550;40.588;49.684;2023-04-20T08:53:28;100664.22;;;23.44;55.76
60371;BME280;48550;40.588;49.684;2023-04-20T08:55:54;100668.56;;;23.37;55.38
60371;BME280;48550;40.588;49.684;2023-04-20T08:58:24;100673.63;;;23.04;56.96
60371;BME280;48550;40.588;49.684;2023-04-20T09:00:50;100671.78;;;22.91;58.13
60371;BME280;48550;40.588;49.684;2023-04-20T09:03:16;100674.47;;;23.13;58.56
60371;BME280;48550;40.588;49.684;2023-04-20T09:05:43;100681.22;;;23.16;58.01
60371;BME280;48550;40.588;49.684;2023-04-20T09:08:09;100692.31;;;23.10;57.18
60371;BME280;48550;40.588;49.684;2023-04-20T09:10:42;100683.47;;;22.51;60.72
60371;BME280;48550;40.588;49.684;2023-04-20T09:13:29;100669.31;;;22.49;60.15
60371;BME280;48550;40.588;49.684;2023-04-20T09:15:54;100670.19;;;22.36;62.66
60371;BME280;48550;40.588;49.684;2023-04-20T09:18:20;100663.44;;;22.34;61.44
60371;BME280;48550;40.588;49.684;2023-04-20T09:20:48;100666.13;;;22.56;59.63
60371;BME280;48550;40.588;49.684;2023-04-20T09:23:18;100655.03;;;22.61;59.17
60371;BME280;48550;40.588;49.684;2023-04-20T09:25:48;100644.69;;;22.80;59.18
60371;BME280;48550;40.588;49.684;2023-04-20T09:28:14;100654.28;;;22.69;59.71
60371;BME280;48550;40.588;49.684;2023-04-20T09:30:46;100652.31;;;22.61;60.25
60371;BME280;48550;40.588;49.684;2023-04-20T09:33:13;100633.59;;;22.24;61.01
60371;BME280;48550;40.588;49.684;2023-04-20T09:35:40;100638.22;;;21.78;65.03
60371;BME280;48550;40.588;49.684;2023-04-20T09:38:14;100641.81;;;21.87;64.70
60371;BME280;48550;40.588;49.684;2023-04-20T09:40:40;100622.75;;;21.96;63.85
60371;BME280;48550;40.588;49.684;2023-04-20T09:43:12;100626.31;;;22.41;61.58
60371;BME280;48550;40.588;49.684;2023-04-20T09:45:40;100621.06;;;22.54;60.10
60371;BME280;48550;40.588;49.684;2023-04-20T09:48:07;100626.66;;;22.48;60.25
60371;BME280;48550;40.588;49.684;2023-04-20T09:50:36;100626.75;;;22.35;60.35
60371;BME280;48550;40.588;49.684;2023-04-20T09:53:05;100631.97;;;22.45;59.35
60371;BME280;48550;40.588;49.684;2023-04-20T09:55:32;100619.09;;;22.45;58.66
60371;BME280;48550;40.588;49.684;2023-04-20T09:58:00;100618.09;;;22.41;58.53
60371;BME280;48550;40.588;49.684;2023-04-20T10:00:26;100616.63;;;22.35;58.56
60371;BME280;48550;40.588;49.684;2023-04-20T10:02:52;100620.69;;;22.46;57.90
60371;BME280;48550;40.588;49.684;2023-04-20T10:05:18;100631.34;;;22.48;58.16
60371;BME280;48550;40.588;49.684;2023-04-20T10:07:44;100631.50;;;22.51;57.48
60371;BME280;48550;40.588;49.684;2023-04-20T10:10:11;100625.69;;;22.44;57.94
60371;BME280;48550;40.588;49.684;2023-04-20T10:12:57;100634.72;;;22.54;57.18
60371;BME280;48550;40.588;49.684;2023-04-20T10:15:35;100630.25;;;22.58;56.68
60371;BME280;48550;40.588;49.684;2023-04-20T10:18:02;100613.66;;;22.54;55.21
60371;BME280;48550;40.588;49.684;2023-04-20T10:20:38;100613.63;;;22.45;55.67
60371;BME280;48550;40.588;49.684;2023-04-20T10:23:09;100601.56;;;22.46;55.68
60371;BME280;48550;40.588;49.684;2023-04-20T10:25:36;100610.78;;;22.28;55.91
60371;BME280;48550;40.588;49.684;2023-04-20T10:28:04;100605.31;;;22.28;55.36
60371;BME280;48550;40.588;49.684;2023-04-20T10:30:34;100608.16;;;22.23;55.62
60371;BME280;48550;40.588;49.684;2023-04-20T10:33:11;100605.94;;;22.25;55.13
60371;BME280;48550;40.588;49.684;2023-04-20T10:35:55;100613.13;;;22.43;55.56
60371;BME280;48550;40.588;49.684;2023-04-20T10:38:33;100606.53;;;22.44;53.56
60371;BME280;48550;40.588;49.684;2023-04-20T10:41:10;100603.13;;;22.39;53.95
60371;BME280;48550;40.588;49.684;2023-04-20T10:43:36;100601.53;;;22.15;53.88
60371;BME280;48550;40.588;49.684;2023-04-20T10:46:17;100603.31;;;22.20;53.88
60371;BME280;48550;40.588;49.684;2023-04-20T10:51:16;100584.75;;;21.86;53.44
60371;BME280;48550;40.588;49.684;2023-04-20T10:53:42;100588.16;;;21.92;53.11
60371;BME280;48550;40.588;49.684;2023-04-20T10:56:07;100580.16;;;21.95;52.93
60371;BME280;48550;40.588;49.684;2023-04-20T10:58:35;100587.06;;;22.15;52.25
60371;BME280;48550;40.588;49.684;2023-04-20T11:01:03;100595.06;;;22.34;51.31
60371;BME280;48550;40.588;49.684;2023-04-20T11:03:30;100589.84;;;22.55;50.69
60371;BME280;48550;40.588;49.684;2023-04-20T11:05:59;100588.09;;;22.59;50.47
60371;BME280;48550;40.588;49.684;2023-04-20T11:08:41;100584.25;;;22.68;50.22
60371;BME280;48550;40.588;49.684;2023-04-20T11:11:22;100582.56;;;22.81;49.26
60371;BME280;48550;40.588;49.684;2023-04-20T11:14:05;100585.88;;;22.69;49.08
60371;BME280;48550;40.588;49.684;2023-04-20T11:16:35;100579.56;;;22.29;49.43
60371;BME280;48550;40.588;49.684;2023-04-20T11:19:01;100583.31;;;22.33;49.80
60371;BME280;48550;40.588;49.684;2023-04-20T11:21:38;100576.41;;;22.36;48.90
60371;BME280;48550;40.588;49.684;2023-04-20T11:24:16;100569.34;;;22.35;49.00
60371;BME280;48550;40.588;49.684;2023-04-20T11:26:43;100560.50;;;22.38;48.98
60371;BME280;48550;40.588;49.684;2023-04-20T11:29:09;100556.97;;;22.37;48.49
60371;BME280;48550;40.588;49.684;2023-04-20T11:31:34;100566.78;;;22.38;47.97
60371;BME280;48550;40.588;49.684;2023-04-20T11:34:01;100555.34;;;22.36;47.09
60371;BME280;48550;40.588;49.684;2023-04-20T11:36:28;100550.63;;;22.28;47.19
60371;BME280;48550;40.588;49.684;2023-04-20T11:39:06;100548.19;;;22.27;46.79
60371;BME280;48550;40.588;49.684;2023-04-20T11:41:32;100537.09;;;22.23;46.73
60371;BME280;48550;40.588;49.684;2023-04-20T11:43:57;100541.94;;;22.26;46.67
60371;BME280;48550;40.588;49.684;2023-04-20T11:46:23;100547.06;;;22.28;46.17
60371;BME280;48550;40.588;49.684;2023-04-20T11:48:49;100547.47;;;22.35;45.64
60371;BME280;48550;40.588;49.684;2023-04-20T11:51:15;100544.75;;;22.43;45.20
60371;BME280;48550;40.588;49.684;2023-04-20T11:53:41;100547.47;;;22.35;45.24
60371;BME280;48550;40.588;49.684;2023-04-20T11:56:07;100543.75;;;22.31;44.98
60371;BME280;48550;40.588;49.684;2023-04-20T11:58:33;100537.97;;;22.32;45.31
60371;BME280;48550;40.588;49.684;2023-04-20T12:00:59;100525.44;;;22.40;45.18
60371;BME280;48550;40.588;49.684;2023-04-20T12:03:25;100536.38;;;22.40;45.32
60371;BME280;48550;40.588;49.684;2023-04-20T12:05:51;100546.97;;;22.33;45.24
60371;BME280;48550;40.588;49.684;2023-04-20T12:08:17;100536.66;;;22.30;45.14
60371;BME280;48550;40.588;49.684;2023-04-20T12:10:43;100554.88;;;22.12;46.05
60371;BME280;48550;40.588;49.684;2023-04-20T12:13:09;100541.09;;;21.95;45.64
60371;BME280;48550;40.588;49.684;2023-04-20T12:15:35;100551.88;;;21.69;46.72
60371;BME280;48550;40.588;49.684;2023-04-20T12:18:01;100552.19;;;21.53;47.11
60371;BME280;48550;40.588;49.684;2023-04-20T12:20:26;100546.19;;;21.43;47.27
60371;BME280;48550;40.588;49.684;2023-04-20T12:22:52;100531.84;;;21.37;47.37
60371;BME280;48550;40.588;49.684;2023-04-20T12:25:19;100535.00;;;21.31;47.31
60371;BME280;48550;40.588;49.684;2023-04-20T12:27:45;100527.63;;;21.17;47.46
60371;BME280;48550;40.588;49.684;2023-04-20T12:30:11;100535.81;;;21.17;47.88
60371;BME280;48550;40.588;49.684;2023-04-20T12:32:37;100526.44;;;21.10;48.52
60371;BME280;48550;40.588;49.684;2023-04-20T12:35:02;100524.13;;;21.03;49.14
60371;BME280;48550;40.588;49.684;2023-04-20T12:37:28;100523.13;;;20.99;48.70